createdAt,value
2023-12-09T00:21:01.352Z,100671.91
2023-12-09T00:23:27.948Z,100662.16
2023-12-09T00:25:54.493Z,100662.16
2023-12-09T00:28:21.470Z,100668.56
2023-12-09T00:30:48.044Z,100664.75
2023-12-09T00:33:14.890Z,100668.25
2023-12-09T00:35:41.533Z,100674.00
2023-12-09T00:38:08.127Z,100689.13
2023-12-09T00:40:34.699Z,100691.66
2023-12-09T00:43:01.284Z,100684.84
2023-12-09T00:45:27.870Z,100682.31
2023-12-09T00:47:54.652Z,100676.38
2023-12-09T00:50:21.267Z,100670.16
2023-12-09T00:52:47.892Z,100667.13
2023-12-09T00:55:14.419Z,100664.63
2023-12-09T00:57:40.906Z,100666.06
2023-12-09T01:00:08.000Z,100674.97
2023-12-09T01:02:34.624Z,100664.13
2023-12-09T01:05:01.320Z,100680.69
2023-12-09T01:07:27.917Z,100678.66
2023-12-09T01:09:54.416Z,100686.63
2023-12-09T01:12:21.047Z,100674.19
2023-12-09T01:14:47.550Z,100685.03
2023-12-09T01:17:14.109Z,100680.38
2023-12-09T01:19:40.731Z,100679.88
2023-12-09T01:22:07.285Z,100688.81
2023-12-09T01:24:33.878Z,100687.75
2023-12-09T01:27:00.398Z,100681.50
2023-12-09T01:29:26.928Z,100679.59
2023-12-09T01:31:53.498Z,100672.75
2023-12-09T01:34:20.179Z,100685.50
2023-12-09T01:36:46.905Z,100688.72
2023-12-09T01:39:14.103Z,100684.88
2023-12-09T01:41:40.701Z,100689.22
2023-12-09T01:44:07.266Z,100690.31
2023-12-09T01:46:34.973Z,100690.31
2023-12-09T01:49:01.756Z,100695.72
2023-12-09T01:51:29.757Z,100693.00
2023-12-09T01:53:56.513Z,100688.22
2023-12-09T01:56:23.318Z,100689.22
2023-12-09T01:58:50.427Z,100687.91
2023-12-09T02:01:17.099Z,100684.09
2023-12-09T02:03:44.015Z,100682.66
2023-12-09T02:06:11.039Z,100667.22
2023-12-09T02:08:39.964Z,100674.53
2023-12-09T02:11:24.244Z,100684.09
2023-12-09T02:14:08.272Z,100672.13
2023-12-09T02:16:46.857Z,100680.25
2023-12-09T02:19:15.020Z,100683.78
2023-12-09T02:22:07.452Z,100671.31
2023-12-09T02:24:35.136Z,100668.59
2023-12-09T02:27:14.616Z,100677.38
2023-12-09T02:30:13.227Z,100682.16
2023-12-09T02:32:41.103Z,100673.44
2023-12-09T02:35:11.297Z,100672.63
2023-12-09T02:37:39.267Z,100679.97
2023-12-09T02:40:10.921Z,100681.56
2023-12-09T02:42:41.081Z,100676.16
2023-12-09T02:45:09.089Z,100676.94
2023-12-09T02:47:35.747Z,100675.84
2023-12-09T02:50:02.290Z,100668.50
2023-12-09T02:52:29.134Z,100666.91
2023-12-09T02:54:55.886Z,100675.84
2023-12-09T02:57:22.498Z,100673.59
2023-12-09T02:59:49.083Z,100677.13
2023-12-09T03:02:15.577Z,100682.84
2023-12-09T03:04:42.154Z,100676.63
2023-12-09T03:07:08.734Z,100677.63
2023-12-09T03:09:35.320Z,100672.97
2023-12-09T03:12:02.018Z,100672.00
2023-12-09T03:14:30.038Z,100670.09
2023-12-09T03:16:56.603Z,100667.41
2023-12-09T03:19:23.276Z,100665.16
2023-12-09T03:21:49.853Z,100656.91
2023-12-09T03:24:16.495Z,100650.50
2023-12-09T03:26:42.992Z,100651.44
2023-12-09T03:29:09.505Z,100646.00
2023-12-09T03:31:41.152Z,100654.47
2023-12-09T03:34:07.809Z,100651.25
2023-12-09T03:36:34.412Z,100653.16
2023-12-09T03:39:01.000Z,100648.53
2023-12-09T03:41:27.648Z,100643.91
2023-12-09T03:43:54.245Z,100647.22
2023-12-09T03:46:20.739Z,100658.38
2023-12-09T03:48:47.471Z,100655.66
2023-12-09T03:51:14.169Z,100651.25
2023-12-09T03:53:42.811Z,100651.56
2023-12-09T03:56:12.527Z,100643.91
2023-12-09T03:58:39.027Z,100645.53
2023-12-09T04:01:05.987Z,100640.09
2023-12-09T04:03:32.650Z,100637.88
2023-12-09T04:05:59.789Z,100640.59
2023-12-09T04:08:27.134Z,100649.19
2023-12-09T04:10:53.878Z,100654.63
2023-12-09T04:13:20.449Z,100656.56
2023-12-09T04:15:46.987Z,100654.31
2023-12-09T04:18:13.749Z,100656.72
2023-12-09T04:20:40.434Z,100655.63
2023-12-09T04:23:06.999Z,100659.91
2023-12-09T04:25:33.577Z,100655.63
2023-12-09T04:28:00.190Z,100653.41
2023-12-09T04:30:26.745Z,100640.16
2023-12-09T04:32:53.375Z,100644.16
2023-12-09T04:35:19.955Z,100649.25
2023-12-09T04:37:46.516Z,100644.66
2023-12-09T04:40:15.160Z,100641.94
2023-12-09T04:42:43.068Z,100644.97
2023-12-09T04:45:10.060Z,100648.94
2023-12-09T04:47:38.029Z,100649.25
2023-12-09T04:50:05.888Z,100648.94
2023-12-09T04:52:32.416Z,100645.91
2023-12-09T04:54:58.954Z,100639.22
2023-12-09T04:57:25.607Z,100640.81
2023-12-09T04:59:52.184Z,100639.69
2023-12-09T05:02:21.413Z,100645.09
2023-12-09T05:04:48.086Z,100643.22
2023-12-09T05:07:15.409Z,100638.59
2023-12-09T05:09:42.048Z,100632.03
2023-12-09T05:12:08.793Z,100625.84
2023-12-09T05:14:35.396Z,100625.84
2023-12-09T05:17:02.247Z,100621.69
2023-12-09T05:19:29.062Z,100614.38
2023-12-09T05:21:55.989Z,100611.34
2023-12-09T05:24:22.637Z,100618.34
2023-12-09T05:26:49.335Z,100607.81
2023-12-09T05:29:16.684Z,100606.38
2023-12-09T05:31:43.625Z,100603.22
2023-12-09T05:34:10.329Z,100601.28
2023-12-09T05:36:40.178Z,100595.06
2023-12-09T05:39:07.122Z,100589.97
2023-12-09T05:41:33.761Z,100596.66
2023-12-09T05:44:00.387Z,100596.66
2023-12-09T05:46:27.036Z,100603.22
2023-12-09T05:48:53.813Z,100603.97
2023-12-09T05:51:20.609Z,100601.28
2023-12-09T05:53:47.169Z,100594.75
2023-12-09T05:56:13.858Z,100592.34
2023-12-09T05:58:40.980Z,100600.97
2023-12-09T06:01:08.739Z,100596.34
2023-12-09T06:03:35.392Z,100582.47
2023-12-09T06:06:02.146Z,100582.47
2023-12-09T06:08:28.771Z,100587.91
2023-12-09T06:10:55.482Z,100590.59
2023-12-09T06:13:21.994Z,100584.09
2023-12-09T06:15:50.966Z,100584.88
2023-12-09T06:18:17.952Z,100594.94
2023-12-09T06:20:44.552Z,100595.09
2023-12-09T06:23:11.109Z,100585.06
2023-12-09T06:25:37.820Z,100595.09
2023-12-09T06:28:04.525Z,100597.50
2023-12-09T06:30:31.212Z,100596.41
2023-12-09T06:32:57.915Z,100600.69
2023-12-09T06:35:24.565Z,100602.31
2023-12-09T06:37:51.125Z,100602.91
2023-12-09T06:40:17.660Z,100606.94
2023-12-09T06:42:44.218Z,100607.75
2023-12-09T06:45:11.197Z,100621.78
2023-12-09T06:47:37.816Z,100623.69
2023-12-09T06:50:04.772Z,100624.47
2023-12-09T06:52:31.381Z,100622.25
2023-12-09T06:54:57.950Z,100623.84
2023-12-09T06:57:24.521Z,100622.75
2023-12-09T06:59:52.326Z,100619.25
2023-12-09T07:02:18.911Z,100628.38
2023-12-09T07:04:45.530Z,100613.69
2023-12-09T07:07:18.593Z,100622.13
2023-12-09T07:09:48.604Z,100627.56
2023-12-09T07:12:15.168Z,100630.75
2023-12-09T07:14:41.719Z,100628.06
2023-12-09T07:17:08.377Z,100626.13
2023-12-09T07:19:35.238Z,100619.09
2023-12-09T07:22:04.512Z,100619.59
2023-12-09T07:24:31.565Z,100605.22
2023-12-09T07:26:58.216Z,100611.47
2023-12-09T07:29:27.073Z,100608.75
2023-12-09T07:31:54.749Z,100606.81
2023-12-09T07:34:21.645Z,100608.25
2023-12-09T07:36:48.273Z,100609.06
2023-12-09T07:39:14.992Z,100616.06
2023-12-09T07:41:42.700Z,100613.19
2023-12-09T07:44:09.411Z,100617.50
2023-12-09T07:46:36.001Z,100622.13
2023-12-09T07:49:03.164Z,100613.50
2023-12-09T07:51:29.806Z,100619.41
2023-12-09T07:53:56.652Z,100612.41
2023-12-09T07:56:23.574Z,100605.34
2023-12-09T07:58:50.078Z,100605.84
2023-12-09T08:01:16.766Z,100601.69
2023-12-09T08:03:43.570Z,100606.03
2023-12-09T08:06:10.333Z,100607.81
2023-12-09T08:08:36.906Z,100610.19
2023-12-09T08:11:04.286Z,100616.63
2023-12-09T08:13:30.909Z,100623.63
2023-12-09T08:15:57.499Z,100622.38
2023-12-09T08:18:24.511Z,100613.13
2023-12-09T08:20:51.170Z,100608.97
2023-12-09T08:23:17.859Z,100609.78
2023-12-09T08:25:44.921Z,100606.44
2023-12-09T08:28:11.850Z,100606.13
2023-12-09T08:30:40.278Z,100598.47
2023-12-09T08:33:07.054Z,100605.47
2023-12-09T08:35:33.961Z,100607.06
2023-12-09T08:38:00.549Z,100603.44
2023-12-09T08:40:27.211Z,100606.16
2023-12-09T08:42:53.958Z,100605.84
2023-12-09T08:45:20.708Z,100597.84
2023-12-09T08:47:47.719Z,100602.50
2023-12-09T08:52:44.983Z,100598.53
2023-12-09T08:55:12.135Z,100590.88
2023-12-09T08:57:39.765Z,100591.66
2023-12-09T09:00:09.957Z,100585.91
2023-12-09T09:02:36.573Z,100580.47
2023-12-09T09:05:04.514Z,100591.03
2023-12-09T09:07:31.206Z,100586.38
2023-12-09T09:09:57.758Z,100578.41
2023-12-09T09:12:24.589Z,100571.53
2023-12-09T09:14:51.381Z,100570.13
2023-12-09T09:17:18.088Z,100576.50
2023-12-09T09:19:44.669Z,100572.69
2023-12-09T09:22:11.255Z,100579.38
2023-12-09T09:24:37.990Z,100572.03
2023-12-09T09:27:04.844Z,100577.97
2023-12-09T09:29:31.436Z,100575.38
2023-12-09T09:31:57.996Z,100577.47
2023-12-09T09:34:24.592Z,100580.66
2023-12-09T09:36:51.170Z,100583.88
2023-12-09T09:39:19.268Z,100571.56
2023-12-09T09:42:04.437Z,100572.69
2023-12-09T09:44:38.669Z,100573.50
2023-12-09T09:47:07.268Z,100577.78
2023-12-09T09:49:38.423Z,100570.44
2023-12-09T09:52:10.622Z,100566.13
2023-12-09T09:54:39.102Z,100562.78
2023-12-09T09:57:08.131Z,100561.31
2023-12-09T09:59:35.855Z,100546.47
2023-12-09T10:02:04.965Z,100554.31
2023-12-09T10:04:34.054Z,100542.31
2023-12-09T10:07:01.327Z,100540.88
2023-12-09T10:09:28.781Z,100533.50
2023-12-09T10:11:55.384Z,100543.72
2023-12-09T10:14:21.959Z,100528.25
2023-12-09T10:16:48.722Z,100527.44
2023-12-09T10:19:16.234Z,100522.81
2023-12-09T10:21:43.607Z,100528.72
2023-12-09T10:24:10.184Z,100530.31
2023-12-09T10:26:36.742Z,100524.06
2023-12-09T10:29:04.727Z,100518.00
2023-12-09T10:31:31.359Z,100513.03
2023-12-09T10:33:59.346Z,100508.41
2023-12-09T10:36:26.208Z,100505.34
2023-12-09T10:38:53.961Z,100493.34
2023-12-09T10:41:20.521Z,100486.81
2023-12-09T10:43:47.560Z,100479.00
2023-12-09T10:46:14.838Z,100481.53
2023-12-09T10:48:42.772Z,100475.78
2023-12-09T10:51:09.491Z,100475.94
2023-12-09T10:53:36.657Z,100475.94
2023-12-09T10:56:03.778Z,100475.72
2023-12-09T10:58:34.529Z,100466.16
2023-12-09T11:01:03.535Z,100469.13
2023-12-09T11:03:30.747Z,100458.75
2023-12-09T11:06:00.755Z,100456.19
2023-12-09T11:08:31.344Z,100446.88
2023-12-09T11:10:58.734Z,100442.25
2023-12-09T11:13:26.170Z,100441.59
2023-12-09T11:16:24.757Z,100443.22
2023-12-09T11:18:56.676Z,100449.75
2023-12-09T11:21:28.162Z,100451.88
2023-12-09T11:23:56.563Z,100440.19
2023-12-09T11:26:31.599Z,100435.88
2023-12-09T11:29:03.732Z,100432.69
2023-12-09T11:31:39.075Z,100424.06
2023-12-09T11:34:07.894Z,100411.91
2023-12-09T11:36:40.050Z,100410.63
2023-12-09T11:39:08.643Z,100410.63
2023-12-09T11:41:35.510Z,100406.34
2023-12-09T11:44:05.260Z,100405.69
2023-12-09T11:46:32.592Z,100390.50
2023-12-09T11:49:00.478Z,100383.44
2023-12-09T11:51:27.923Z,100370.31
2023-12-09T11:53:58.452Z,100368.75
2023-12-09T11:56:25.455Z,100365.69
2023-12-09T11:58:52.572Z,100359.59
2023-12-09T12:01:20.076Z,100354.63
2023-12-09T12:03:50.816Z,100355.09
2023-12-09T12:06:19.093Z,100348.22
2023-12-09T12:08:48.495Z,100358.75
2023-12-09T12:11:22.614Z,100356.81
2023-12-09T12:13:49.808Z,100342.13
2023-12-09T12:16:16.656Z,100337.91
2023-12-09T12:18:45.915Z,100334.44
2023-12-09T12:21:12.648Z,100342.69
2023-12-09T12:23:40.692Z,100338.53
2023-12-09T12:26:10.263Z,100334.69
2023-12-09T12:28:37.309Z,100321.09
2023-12-09T12:31:05.430Z,100322.38
2023-12-09T12:33:32.589Z,100314.22
2023-12-09T12:36:00.467Z,100318.97
2023-12-09T12:38:27.885Z,100311.59
2023-12-09T12:40:55.753Z,100315.47
2023-12-09T12:43:22.504Z,100306.16
2023-12-09T12:45:50.578Z,100291.78
2023-12-09T12:48:18.531Z,100287.44
2023-12-09T12:50:51.369Z,100274.66
2023-12-09T12:53:21.673Z,100273.06
2023-12-09T12:55:49.058Z,100275.13
2023-12-09T12:58:16.726Z,100267.44
2023-12-09T13:00:43.448Z,100265.50
2023-12-09T13:03:10.131Z,100270.59
2023-12-09T13:05:36.880Z,100264.06
2023-12-09T13:08:05.710Z,100252.84
2023-12-09T13:10:32.796Z,100257.59
2023-12-09T13:12:59.444Z,100248.78
2023-12-09T13:15:26.437Z,100246.53
2023-12-09T13:17:53.170Z,100239.94
2023-12-09T13:20:19.860Z,100225.22
2023-12-09T13:22:47.240Z,100221.38
2023-12-09T13:25:15.186Z,100224.56
2023-12-09T13:27:43.057Z,100223.75
2023-12-09T13:30:10.429Z,100212.88
2023-12-09T13:32:38.280Z,100211.72
2023-12-09T13:35:06.659Z,100221.16
2023-12-09T13:37:33.979Z,100214.91
2023-12-09T13:40:01.099Z,100220.03
2023-12-09T13:42:28.764Z,100222.75
2023-12-09T13:44:55.690Z,100218.91
2023-12-09T13:47:22.232Z,100217.78
2023-12-09T13:49:49.168Z,100212.31
2023-12-09T13:52:17.245Z,100202.59
2023-12-09T13:54:44.628Z,100199.06
2023-12-09T13:57:11.630Z,100192.81
2023-12-09T13:59:38.523Z,100190.91
2023-12-09T14:02:07.360Z,100183.19
2023-12-09T14:04:34.360Z,100175.81
2023-12-09T14:07:01.831Z,100167.53
2023-12-09T14:09:28.483Z,100158.59
2023-12-09T14:11:55.110Z,100159.69
2023-12-09T14:14:21.725Z,100158.13
2023-12-09T14:16:48.412Z,100150.75
2023-12-09T14:19:15.475Z,100147.56
2023-12-09T14:21:42.261Z,100138.25
2023-12-09T14:24:09.733Z,100135.88
2023-12-09T14:26:36.813Z,100137.84
2023-12-09T14:29:03.671Z,100135.75
2023-12-09T14:31:30.252Z,100128.72
2023-12-09T14:33:57.448Z,100125.22
2023-12-09T14:36:24.280Z,100114.31
2023-12-09T14:38:51.155Z,100113.09
2023-12-09T14:41:17.706Z,100107.97
2023-12-09T14:43:46.746Z,100094.25
2023-12-09T14:46:14.209Z,100085.63
2023-12-09T14:48:41.174Z,100082.47
2023-12-09T14:51:08.165Z,100084.72
2023-12-09T14:53:34.840Z,100087.44
2023-12-09T14:56:02.096Z,100087.66
2023-12-09T14:58:29.610Z,100081.63
2023-12-09T15:00:56.430Z,100080.72
2023-12-09T15:03:23.199Z,100080.25
2023-12-09T15:05:50.635Z,100072.31
2023-12-09T15:08:17.277Z,100072.97
2023-12-09T15:10:44.028Z,100067.88
2023-12-09T15:13:10.602Z,100060.38
2023-12-09T15:15:37.180Z,100054.59
2023-12-09T15:18:04.040Z,100044.50
2023-12-09T15:20:31.832Z,100052.19
2023-12-09T15:22:59.516Z,100044.03
2023-12-09T15:25:26.468Z,100035.44
2023-12-09T15:27:53.175Z,100027.16
2023-12-09T15:30:20.468Z,100025.25
2023-12-09T15:32:48.007Z,100014.81
2023-12-09T15:35:14.967Z,100016.63
2023-12-09T15:37:43.532Z,100013.91
2023-12-09T15:40:11.826Z,100009.56
2023-12-09T15:42:39.033Z,100014.56
2023-12-09T15:45:06.363Z,100015.25
2023-12-09T15:47:33.151Z,100016.69
2023-12-09T15:49:59.832Z,100004.91
2023-12-09T15:52:26.732Z,99999.47
2023-12-09T15:54:53.406Z,99995.03
2023-12-09T15:57:20.403Z,99985.28
2023-12-09T15:59:54.202Z,99984.50
2023-12-09T16:02:23.743Z,99980.19
2023-12-09T16:04:50.449Z,99979.41
2023-12-09T16:07:17.083Z,99969.34
2023-12-09T16:09:51.665Z,99961.97
2023-12-09T16:12:20.618Z,99968.53
2023-12-09T16:14:52.662Z,99965.03
2023-12-09T16:17:19.741Z,99960.50
2023-12-09T16:19:46.879Z,99959.84
2023-12-09T16:22:13.718Z,99956.44
2023-12-09T16:24:40.325Z,99949.09
2023-12-09T16:27:06.913Z,99941.41
2023-12-09T16:29:33.558Z,99938.69
2023-12-09T16:32:00.077Z,99931.66
2023-12-09T16:34:26.783Z,99935.28
2023-12-09T16:36:53.543Z,99928.28
2023-12-09T16:39:20.151Z,99924.88
2023-12-09T16:41:46.677Z,99924.56
2023-12-09T16:44:13.207Z,99911.31
2023-12-09T16:46:40.367Z,99910.16
2023-12-09T16:49:09.108Z,99908.25
2023-12-09T16:51:36.211Z,99900.88
2023-12-09T16:54:03.120Z,99901.66
2023-12-09T16:56:29.918Z,99881.06
2023-12-09T16:58:57.973Z,99878.34
2023-12-09T17:01:24.780Z,99874.03
2023-12-09T17:03:51.529Z,99877.44
2023-12-09T17:06:18.380Z,99874.38
2023-12-09T17:08:45.027Z,99873.25
2023-12-09T17:11:11.647Z,99861.13
2023-12-09T17:13:38.706Z,99860.69
2023-12-09T17:16:05.510Z,99852.84
2023-12-09T17:18:32.390Z,99846.31
2023-12-09T17:20:59.160Z,99847.88
2023-12-09T17:23:25.858Z,99852.84
2023-12-09T17:25:52.600Z,99858.28
2023-12-09T17:28:20.003Z,99854.56
2023-12-09T17:30:47.937Z,99842.91
2023-12-09T17:33:14.676Z,99838.69
2023-12-09T17:35:41.358Z,99828.97
2023-12-09T17:38:07.988Z,99822.72
2023-12-09T17:40:34.714Z,99815.72
2023-12-09T17:43:01.315Z,99800.22
2023-12-09T17:45:27.940Z,99780.06
2023-12-09T17:47:54.625Z,99784.00
2023-12-09T17:50:22.574Z,99769.19
2023-12-09T17:52:49.294Z,99759.88
2023-12-09T17:55:16.127Z,99754.81
2023-12-09T17:57:42.872Z,99752.00
2023-12-09T18:00:11.432Z,99745.75
2023-12-09T18:02:38.672Z,99736.00
2023-12-09T18:05:05.769Z,99734.44
2023-12-09T18:07:32.505Z,99718.47
2023-12-09T18:09:59.188Z,99706.81
2023-12-09T18:12:26.338Z,99702.97
2023-12-09T18:14:53.150Z,99701.81
2023-12-09T18:17:20.033Z,99702.97
2023-12-09T18:19:47.778Z,99698.31
2023-12-09T18:22:14.566Z,99691.75
2023-12-09T18:24:41.466Z,99690.16
2023-12-09T18:27:08.353Z,99691.66
2023-12-09T18:29:35.012Z,99688.59
2023-12-09T18:32:01.652Z,99686.22
2023-12-09T18:34:28.296Z,99681.81
2023-12-09T18:36:55.218Z,99690.31
2023-12-09T18:39:22.546Z,99669.25
2023-12-09T18:41:49.200Z,99654.41
2023-12-09T18:44:16.387Z,99646.97
2023-12-09T18:46:43.075Z,99638.00
2023-12-09T18:49:10.938Z,99621.41
2023-12-09T18:51:37.785Z,99616.19
2023-12-09T18:54:04.547Z,99609.84
2023-12-09T18:56:31.442Z,99602.16
2023-12-09T18:58:58.009Z,99605.22
2023-12-09T19:01:24.697Z,99603.38
2023-12-09T19:03:51.353Z,99606.22
2023-12-09T19:06:18.536Z,99601.59
2023-12-09T19:08:45.182Z,99594.19
2023-12-09T19:11:11.741Z,99589.22
2023-12-09T19:13:38.354Z,99591.59
2023-12-09T19:16:05.362Z,99591.25
2023-12-09T19:18:32.250Z,99584.25
2023-12-09T19:20:59.108Z,99578.47
2023-12-09T19:23:25.683Z,99574.94
2023-12-09T19:25:52.496Z,99566.44
2023-12-09T19:28:19.045Z,99564.66
2023-12-09T19:30:45.614Z,99568.06
2023-12-09T19:33:12.452Z,99577.44
2023-12-09T19:35:39.122Z,99578.22
2023-12-09T19:38:05.734Z,99578.69
2023-12-09T19:40:32.326Z,99577.09
2023-12-09T19:42:59.013Z,99568.47
2023-12-09T19:45:27.106Z,99555.69
2023-12-09T19:47:56.334Z,99554.13
2023-12-09T19:50:24.989Z,99554.56
2023-12-09T19:52:52.062Z,99552.09
2023-12-09T19:55:18.674Z,99561.69
2023-12-09T19:57:45.633Z,99549.16
2023-12-09T20:00:15.796Z,99551.50
2023-12-09T20:02:45.273Z,99542.31
2023-12-09T20:05:12.148Z,99530.75
2023-12-09T20:07:38.815Z,99530.66
2023-12-09T20:10:06.037Z,99526.03
2023-12-09T20:12:32.692Z,99528.19
2023-12-09T20:14:59.531Z,99527.47
2023-12-09T20:17:26.197Z,99518.97
2023-12-09T20:19:52.912Z,99521.28
2023-12-09T20:22:21.189Z,99520.47
2023-12-09T20:24:47.964Z,99520.81
2023-12-09T20:27:14.822Z,99510.75
2023-12-09T20:29:41.656Z,99525.13
2023-12-09T20:32:08.210Z,99514.25
2023-12-09T20:34:34.916Z,99512.31
2023-12-09T20:37:02.363Z,99524.34
2023-12-09T20:39:28.935Z,99506.44
2023-12-09T20:41:55.622Z,99504.88
2023-12-09T20:44:22.174Z,99507.59
2023-12-09T20:46:48.720Z,99492.41
2023-12-09T20:49:18.002Z,99499.44
2023-12-09T20:51:46.036Z,99497.94
2023-12-09T20:54:13.152Z,99509.63
2023-12-09T20:56:39.826Z,99494.00
2023-12-09T20:59:09.353Z,99487.88
2023-12-09T21:01:50.164Z,99488.22
2023-12-09T21:04:17.603Z,99482.44
2023-12-09T21:06:44.636Z,99478.16
2023-12-09T21:09:11.308Z,99482.69
2023-12-09T21:11:39.193Z,99466.03
2023-12-09T21:14:06.808Z,99469.22
2023-12-09T21:16:34.552Z,99462.22
2023-12-09T21:19:03.051Z,99460.59
2023-12-09T21:21:32.814Z,99454.38
2023-12-09T21:23:59.485Z,99450.53
2023-12-09T21:26:26.204Z,99448.19
2023-12-09T21:28:52.777Z,99452.00
2023-12-09T21:31:19.527Z,99444.22
2023-12-09T21:33:46.439Z,99443.78
2023-12-09T21:36:16.592Z,99437.22
2023-12-09T21:38:44.519Z,99435.63
2023-12-09T21:41:21.907Z,99431.31
2023-12-09T21:43:51.958Z,99419.69
2023-12-09T21:46:23.374Z,99413.91
2023-12-09T21:48:51.476Z,99410.75
2023-12-09T21:51:19.488Z,99403.81
2023-12-09T21:53:46.252Z,99395.75
2023-12-09T21:56:23.395Z,99383.31
2023-12-09T21:58:50.701Z,99383.69
2023-12-09T22:01:18.427Z,99381.03
2023-12-09T22:03:45.334Z,99381.31
2023-12-09T22:06:15.616Z,99379.91
2023-12-09T22:08:43.268Z,99376.84
2023-12-09T22:11:11.267Z,99371.41
2023-12-09T22:13:38.871Z,99368.69
2023-12-09T22:16:05.920Z,99359.28
2023-12-09T22:18:32.584Z,99365.44
2023-12-09T22:21:01.073Z,99363.41
2023-12-09T22:23:27.684Z,99362.31
2023-12-09T22:25:54.260Z,99357.53
2023-12-09T22:28:22.122Z,99364.56
2023-12-09T22:30:48.732Z,99361.84
2023-12-09T22:33:15.598Z,99359.13
2023-12-09T22:35:42.233Z,99359.13
2023-12-09T22:38:08.786Z,99355.63
2023-12-09T22:40:35.532Z,99337.84
2023-12-09T22:43:02.218Z,99341.78
2023-12-09T22:45:29.027Z,99335.91
2023-12-09T22:47:55.877Z,99339.88
2023-12-09T22:50:22.767Z,99339.59
2023-12-09T22:52:49.293Z,99345.91
2023-12-09T22:55:15.914Z,99337.75
2023-12-09T22:57:42.725Z,99347.56
2023-12-09T23:00:19.064Z,99347.56
2023-12-09T23:02:45.681Z,99348.00
2023-12-09T23:05:12.267Z,99345.72
2023-12-09T23:07:38.844Z,99340.38
2023-12-09T23:10:06.141Z,99332.25
2023-12-09T23:12:32.862Z,99335.38
2023-12-09T23:14:59.486Z,99326.50
2023-12-09T23:17:26.080Z,99329.22
2023-12-09T23:19:52.754Z,99319.97
2023-12-09T23:22:19.344Z,99321.53
2023-12-09T23:24:45.860Z,99315.38
2023-12-09T23:27:12.481Z,99310.75
2023-12-09T23:29:39.097Z,99309.88
2023-12-09T23:32:05.901Z,99314.53
2023-12-09T23:34:32.582Z,99313.09
2023-12-09T23:36:59.285Z,99299.50
2023-12-09T23:39:25.891Z,99299.06
2023-12-09T23:41:52.616Z,99301.78
2023-12-09T23:44:19.237Z,99293.28
2023-12-09T23:46:45.804Z,99297.25
2023-12-09T23:49:12.407Z,99289.09
2023-12-09T23:51:39.128Z,99296.44
2023-12-09T23:54:05.856Z,99299.94
2023-12-09T23:56:32.426Z,99299.94
2023-12-09T23:58:59.130Z,99306.44
